Racine, Pennsylvania
Current Conditions -  °F | °C
As of 4:47 PM on Friday 31 Oct 2014 (Local Time) from KBVI Reporting Station
Drizzle Drizzle  
Wind Chill: 43°   Ceiling: 3300
Heat Index: 43°   Visibility: 10mi
Dew Point: 39°   Wind: 3mph
Humidity: 87%   Direction: 140°SE
Pressure: 29.86"   Gusts: NA
Location:  40.7641°N, 80.3864°W
Report Text: KBVI 312047Z 14003KT 10SM -DZ BKN033 BKN043 OVC050 06/04 A2986
Loading
Personal Weather Stations






























Interactive Weather Map
Tropical Storm Tracking
New forecast layout! Learn more

10-Day Weather Forecast

Advertisements
Track Severe Weather on mobile